createdAt,value
2023-02-06T00:01:17.386Z,4.97
2023-02-06T00:03:46.073Z,5.35
2023-02-06T00:06:13.445Z,4.90
2023-02-06T00:08:40.828Z,4.38
2023-02-06T00:11:09.180Z,4.45
2023-02-06T00:13:36.646Z,4.03
2023-02-06T00:16:04.140Z,4.38
2023-02-06T00:18:31.556Z,4.63
2023-02-06T00:21:00.221Z,5.22
2023-02-06T00:23:27.602Z,3.95
2023-02-06T00:25:54.970Z,5.72
2023-02-06T00:28:22.337Z,4.53
2023-02-06T00:30:49.795Z,4.20
2023-02-06T00:33:17.257Z,4.30
2023-02-06T00:35:44.616Z,3.83
2023-02-06T00:38:13.356Z,4.15
2023-02-06T00:40:40.733Z,5.15
2023-02-06T00:43:08.113Z,4.75
2023-02-06T00:45:35.699Z,4.32
2023-02-06T00:48:03.472Z,4.13
2023-02-06T00:50:30.841Z,4.30
2023-02-06T00:52:58.266Z,4.15
2023-02-06T00:55:27.019Z,3.97
2023-02-06T00:57:54.370Z,4.20
2023-02-06T01:00:21.744Z,4.15
2023-02-06T01:02:49.181Z,5.78
2023-02-06T01:05:16.582Z,4.70
2023-02-06T01:07:44.771Z,5.45
2023-02-06T01:10:12.247Z,4.45
2023-02-06T01:12:41.421Z,3.67
2023-02-06T01:15:10.577Z,3.90
2023-02-06T01:17:37.944Z,4.00
2023-02-06T01:20:06.335Z,4.28
2023-02-06T01:22:34.239Z,4.47
2023-02-06T01:25:01.624Z,4.50
2023-02-06T01:27:28.991Z,4.55
2023-02-06T01:29:57.714Z,4.93
2023-02-06T01:32:25.128Z,4.57
2023-02-06T01:34:52.490Z,3.97
2023-02-06T01:37:19.908Z,4.85
2023-02-06T01:39:47.295Z,3.28
2023-02-06T01:42:14.676Z,4.30
2023-02-06T01:44:42.956Z,3.70
2023-02-06T01:47:11.831Z,4.60
2023-02-06T01:49:40.552Z,3.83
2023-02-06T01:52:10.330Z,3.58
2023-02-06T01:54:37.724Z,4.70
2023-02-06T01:57:06.679Z,4.75
2023-02-06T01:59:34.108Z,3.67
2023-02-06T02:02:01.541Z,3.97
2023-02-06T02:04:30.373Z,4.15
2023-02-06T02:07:01.925Z,3.97
2023-02-06T02:09:29.489Z,4.00
2023-02-06T02:11:56.887Z,6.05
2023-02-06T02:14:25.272Z,3.88
2023-02-06T02:16:59.615Z,4.38
2023-02-06T02:20:13.237Z,5.15
2023-02-06T02:23:10.858Z,5.50
2023-02-06T02:26:04.820Z,4.30
2023-02-06T02:28:43.614Z,2.80
2023-02-06T02:31:27.803Z,4.20
2023-02-06T02:34:11.351Z,3.85
2023-02-06T02:36:41.549Z,3.50
2023-02-06T02:41:40.098Z,3.28
2023-02-06T02:44:08.866Z,4.30
2023-02-06T02:46:37.245Z,3.67
2023-02-06T02:49:05.934Z,4.55
2023-02-06T02:51:33.582Z,4.90
2023-02-06T02:54:02.289Z,3.65
2023-02-06T02:56:30.348Z,4.47
2023-02-06T02:58:59.126Z,3.40
2023-02-06T03:01:28.110Z,3.92
2023-02-06T03:03:55.616Z,4.43
2023-02-06T03:06:32.046Z,4.53
2023-02-06T03:09:00.058Z,4.35
2023-02-06T03:11:28.755Z,4.90
2023-02-06T03:13:58.240Z,3.30
2023-02-06T03:16:26.897Z,3.20
2023-02-06T03:18:57.193Z,4.35
2023-02-06T03:21:24.610Z,3.88
2023-02-06T03:23:53.919Z,5.20
2023-02-06T03:26:22.617Z,3.85
2023-02-06T03:28:52.491Z,4.80
2023-02-06T03:31:21.766Z,4.82
2023-02-06T03:33:50.909Z,4.77
2023-02-06T03:36:18.413Z,5.45
2023-02-06T03:38:46.018Z,5.07
2023-02-06T03:41:13.728Z,4.80
2023-02-06T03:43:41.463Z,5.95
2023-02-06T03:46:12.436Z,5.05
2023-02-06T03:48:41.524Z,6.03
2023-02-06T03:51:12.337Z,6.53
2023-02-06T03:53:39.753Z,5.18
2023-02-06T03:56:08.451Z,6.88
2023-02-06T03:58:35.817Z,5.65
2023-02-06T04:01:03.678Z,5.15
2023-02-06T04:03:32.621Z,5.30
2023-02-06T04:06:00.022Z,4.15
2023-02-06T04:08:27.416Z,5.18
2023-02-06T04:10:54.785Z,6.85
2023-02-06T04:13:22.153Z,5.10
2023-02-06T04:15:49.529Z,5.03
2023-02-06T04:18:16.899Z,7.00
2023-02-06T04:20:45.583Z,5.68
2023-02-06T04:23:12.960Z,6.07
2023-02-06T04:25:40.347Z,5.82
2023-02-06T04:28:07.925Z,6.55
2023-02-06T04:30:35.368Z,8.82
2023-02-06T04:33:02.742Z,7.50
2023-02-06T04:35:30.114Z,7.13
2023-02-06T04:37:58.828Z,4.90
2023-02-06T04:40:26.293Z,4.95
2023-02-06T04:42:53.691Z,6.40
2023-02-06T04:45:21.066Z,6.55
2023-02-06T04:47:49.997Z,6.22
2023-02-06T04:50:17.469Z,6.10
2023-02-06T04:52:44.864Z,4.97
2023-02-06T04:55:13.558Z,5.85
2023-02-06T04:57:40.938Z,6.45
2023-02-06T05:00:10.267Z,5.10
2023-02-06T05:02:39.599Z,6.25
2023-02-06T05:05:08.052Z,5.28
2023-02-06T05:07:35.517Z,7.20
2023-02-06T05:10:02.981Z,7.63
2023-02-06T05:12:31.673Z,7.97
2023-02-06T05:14:59.056Z,5.00
2023-02-06T05:17:26.479Z,8.32
2023-02-06T05:19:53.920Z,6.78
2023-02-06T05:22:21.305Z,6.25
2023-02-06T05:24:48.672Z,7.53
2023-02-06T05:27:16.026Z,6.32
2023-02-06T05:29:44.722Z,5.57
2023-02-06T05:32:12.155Z,6.38
2023-02-06T05:34:39.548Z,5.78
2023-02-06T05:37:06.928Z,6.80
2023-02-06T05:39:34.292Z,5.40
2023-02-06T05:42:01.685Z,5.80
2023-02-06T05:44:29.071Z,6.68
2023-02-06T05:46:57.868Z,5.20
2023-02-06T05:49:25.254Z,8.07
2023-02-06T05:51:52.623Z,6.00
2023-02-06T05:54:20.002Z,5.72
2023-02-06T05:56:47.403Z,10.10
2023-02-06T05:59:14.799Z,4.60
2023-02-06T06:01:42.847Z,5.95
2023-02-06T06:04:11.625Z,6.78
2023-02-06T06:06:39.096Z,6.85
2023-02-06T06:09:06.505Z,5.65
2023-02-06T06:11:34.237Z,5.95
2023-02-06T06:14:01.678Z,5.40
2023-02-06T06:16:29.059Z,5.45
2023-02-06T06:18:56.594Z,4.13
2023-02-06T06:21:25.299Z,7.70
2023-02-06T06:23:52.689Z,5.35
2023-02-06T06:26:20.117Z,5.63
2023-02-06T06:28:47.466Z,7.85
2023-02-06T06:31:15.061Z,4.88
2023-02-06T06:33:42.563Z,5.38
2023-02-06T06:36:11.869Z,6.55
2023-02-06T06:38:42.250Z,6.38
2023-02-06T06:41:09.640Z,7.65
2023-02-06T06:43:37.029Z,8.00
2023-02-06T06:46:05.120Z,8.93
2023-02-06T06:48:32.560Z,16.77
2023-02-06T06:50:59.940Z,12.60
2023-02-06T06:53:27.394Z,12.85
2023-02-06T06:55:56.071Z,15.98
2023-02-06T06:58:23.434Z,15.82
2023-02-06T07:00:50.817Z,22.17
2023-02-06T07:03:18.244Z,20.10
2023-02-06T07:05:45.935Z,17.75
2023-02-06T07:08:13.311Z,16.30
2023-02-06T07:10:40.707Z,13.00
2023-02-06T07:13:09.392Z,13.70
2023-02-06T07:15:37.142Z,15.20
2023-02-06T07:18:04.796Z,14.45
2023-02-06T07:20:32.192Z,15.40
2023-02-06T07:23:01.517Z,14.32
2023-02-06T07:25:28.931Z,13.38
2023-02-06T07:27:56.334Z,13.05
2023-02-06T07:30:25.069Z,13.30
2023-02-06T07:32:52.442Z,15.65
2023-02-06T07:35:19.837Z,13.52
2023-02-06T07:37:47.250Z,12.57
2023-02-06T07:40:14.631Z,14.82
2023-02-06T07:42:42.008Z,12.82
2023-02-06T07:45:10.267Z,10.95
2023-02-06T07:47:38.951Z,12.30
2023-02-06T07:50:06.863Z,11.50
2023-02-06T07:52:34.274Z,15.10
2023-02-06T07:55:01.662Z,9.98
2023-02-06T07:57:29.032Z,10.02
2023-02-06T07:59:56.400Z,8.00
2023-02-06T08:02:23.836Z,8.10
2023-02-06T08:04:52.528Z,12.18
2023-02-06T08:07:19.896Z,11.50
2023-02-06T08:09:47.328Z,10.27
2023-02-06T08:12:14.706Z,9.18
2023-02-06T08:14:45.556Z,11.15
2023-02-06T08:17:13.519Z,13.05
2023-02-06T08:19:40.918Z,12.55
2023-02-06T08:22:09.620Z,8.70
2023-02-06T08:24:37.022Z,10.73
2023-02-06T08:27:04.427Z,13.05
2023-02-06T08:29:31.796Z,8.32
2023-02-06T08:31:59.191Z,13.65
2023-02-06T08:34:26.671Z,10.18
2023-02-06T08:36:54.055Z,10.88
2023-02-06T08:39:22.753Z,10.93
2023-02-06T08:41:50.136Z,9.13
2023-02-06T08:44:18.170Z,10.40
2023-02-06T08:46:46.312Z,10.40
2023-02-06T08:49:14.855Z,9.27
2023-02-06T08:51:42.243Z,9.38
2023-02-06T08:54:11.640Z,8.02
2023-02-06T08:56:40.383Z,8.35
2023-02-06T08:59:08.036Z,14.98
2023-02-06T09:01:36.521Z,14.60
2023-02-06T09:04:06.260Z,10.55
2023-02-06T09:06:33.775Z,9.32
2023-02-06T09:09:01.147Z,10.98
2023-02-06T09:11:28.640Z,10.23
2023-02-06T09:13:58.460Z,10.93
2023-02-06T09:16:26.214Z,7.88
2023-02-06T09:18:54.221Z,11.30
2023-02-06T09:21:22.675Z,10.57
2023-02-06T09:23:51.758Z,10.90
2023-02-06T09:26:20.717Z,9.48
2023-02-06T09:28:48.187Z,8.95
2023-02-06T09:31:16.978Z,9.27
2023-02-06T09:33:44.404Z,8.30
2023-02-06T09:36:13.363Z,12.20
2023-02-06T09:38:42.145Z,8.32
2023-02-06T09:41:14.125Z,9.10
2023-02-06T09:43:41.492Z,10.10
2023-02-06T09:46:10.000Z,7.13
2023-02-06T09:48:39.173Z,6.55
2023-02-06T09:51:10.082Z,7.57
2023-02-06T09:53:42.780Z,9.18
2023-02-06T09:56:15.726Z,8.75
2023-02-06T09:58:45.222Z,8.57
2023-02-06T10:01:16.064Z,9.70
2023-02-06T10:03:54.811Z,6.88
2023-02-06T10:06:23.288Z,8.20
2023-02-06T10:08:54.768Z,8.18
2023-02-06T10:11:26.721Z,7.63
2023-02-06T10:13:56.212Z,7.45
2023-02-06T10:16:33.813Z,6.93
2023-02-06T10:19:04.982Z,10.35
2023-02-06T10:21:33.896Z,7.85
2023-02-06T10:24:03.530Z,7.85
2023-02-06T10:26:31.212Z,8.13
2023-02-06T10:28:59.203Z,8.40
2023-02-06T10:31:44.833Z,8.85
2023-02-06T10:34:21.904Z,8.25
2023-02-06T10:36:57.456Z,10.02
2023-02-06T10:39:38.255Z,9.13
2023-02-06T10:42:08.472Z,7.18
2023-02-06T10:47:03.762Z,8.40
2023-02-06T10:49:34.652Z,8.43
2023-02-06T10:52:02.952Z,8.05
2023-02-06T10:54:32.626Z,7.63
2023-02-06T10:57:00.013Z,7.60
2023-02-06T10:59:29.660Z,8.02
2023-02-06T11:02:12.431Z,9.88
2023-02-06T11:04:43.113Z,6.03
2023-02-06T11:07:14.849Z,5.68
2023-02-06T11:09:42.227Z,6.28
2023-02-06T11:12:15.958Z,7.45
2023-02-06T11:14:43.318Z,8.30
2023-02-06T11:17:10.699Z,6.45
2023-02-06T11:19:40.397Z,8.20
2023-02-06T11:22:12.833Z,6.93
2023-02-06T11:24:40.491Z,7.05
2023-02-06T11:27:14.289Z,9.50
2023-02-06T11:29:45.584Z,9.07
2023-02-06T11:32:28.310Z,7.15
2023-02-06T11:34:56.947Z,6.75
2023-02-06T11:37:33.338Z,6.97
2023-02-06T11:40:27.235Z,6.80
2023-02-06T11:43:12.927Z,6.40
2023-02-06T11:45:41.205Z,4.97
2023-02-06T11:48:26.532Z,7.53
2023-02-06T11:50:54.974Z,7.45
2023-02-06T11:53:23.689Z,4.47
2023-02-06T11:55:59.410Z,6.95
2023-02-06T11:58:27.408Z,7.82
2023-02-06T12:01:00.384Z,5.85
2023-02-06T12:03:30.922Z,5.35
2023-02-06T12:06:02.862Z,6.55
2023-02-06T12:08:37.395Z,6.82
2023-02-06T12:11:05.767Z,8.77
2023-02-06T12:13:34.762Z,7.82
2023-02-06T12:16:02.858Z,6.15
2023-02-06T12:18:31.041Z,5.55
2023-02-06T12:20:59.944Z,5.47
2023-02-06T12:23:29.556Z,5.63
2023-02-06T12:26:00.237Z,6.55
2023-02-06T12:28:29.766Z,5.28
2023-02-06T12:30:58.339Z,4.68
2023-02-06T12:33:33.851Z,6.70
2023-02-06T12:36:03.158Z,5.95
2023-02-06T12:38:36.328Z,8.13
2023-02-06T12:41:14.706Z,5.95
2023-02-06T12:43:42.155Z,6.28
2023-02-06T12:46:11.385Z,6.95
2023-02-06T12:48:40.029Z,6.20
2023-02-06T12:51:11.161Z,6.05
2023-02-06T12:53:39.627Z,6.13
2023-02-06T12:56:21.883Z,6.53
2023-02-06T12:58:53.084Z,5.45
2023-02-06T13:01:34.487Z,6.13
2023-02-06T13:04:02.812Z,6.47
2023-02-06T13:06:31.070Z,6.28
2023-02-06T13:08:59.363Z,4.63
2023-02-06T13:11:31.730Z,8.38
2023-02-06T13:14:16.173Z,5.35
2023-02-06T13:16:44.761Z,7.07
2023-02-06T13:19:24.064Z,5.80
2023-02-06T13:21:51.888Z,5.47
2023-02-06T13:24:20.072Z,6.90
2023-02-06T13:27:18.786Z,5.90
2023-02-06T13:29:46.651Z,7.90
2023-02-06T13:32:43.245Z,5.90
2023-02-06T13:35:18.412Z,7.07
2023-02-06T13:37:48.178Z,5.22
2023-02-06T13:40:21.560Z,5.40
2023-02-06T13:42:51.796Z,5.88
2023-02-06T13:45:20.982Z,9.60
2023-02-06T13:48:05.568Z,10.40
2023-02-06T13:50:54.758Z,10.85
2023-02-06T13:53:33.554Z,9.07
2023-02-06T13:56:09.556Z,10.55
2023-02-06T13:58:44.588Z,9.55
2023-02-06T14:01:14.366Z,11.02
2023-02-06T14:03:44.905Z,7.85
2023-02-06T14:06:21.694Z,11.50
2023-02-06T14:08:51.168Z,8.00
2023-02-06T14:11:31.644Z,8.10
2023-02-06T14:14:24.756Z,7.68
2023-02-06T14:16:56.253Z,6.10
2023-02-06T14:19:26.678Z,8.15
2023-02-06T14:21:57.390Z,8.90
2023-02-06T14:24:32.634Z,10.25
2023-02-06T14:27:07.656Z,5.35
2023-02-06T14:29:43.416Z,10.80
2023-02-06T14:32:30.987Z,6.25
2023-02-06T14:35:14.383Z,8.80
2023-02-06T14:37:47.343Z,8.43
2023-02-06T14:40:17.822Z,7.10
2023-02-06T14:42:45.886Z,4.95
2023-02-06T14:45:22.301Z,5.18
2023-02-06T14:47:49.957Z,7.20
2023-02-06T14:50:18.793Z,6.30
2023-02-06T14:52:46.353Z,5.80
2023-02-06T14:55:32.135Z,7.35
2023-02-06T14:57:59.544Z,7.43
2023-02-06T15:00:28.751Z,6.25
2023-02-06T15:03:03.851Z,3.80
2023-02-06T15:05:31.815Z,6.88
2023-02-06T15:07:59.649Z,5.50
2023-02-06T15:10:28.171Z,6.82
2023-02-06T15:15:23.976Z,4.60
2023-02-06T15:18:00.085Z,7.85
2023-02-06T15:20:29.365Z,5.60
2023-02-06T15:23:08.063Z,8.37
2023-02-06T15:25:48.540Z,5.75
2023-02-06T15:28:19.409Z,6.38
2023-02-06T15:30:46.850Z,5.10
2023-02-06T15:33:19.406Z,4.93
2023-02-06T15:35:49.792Z,4.70
2023-02-06T15:38:17.227Z,4.78
2023-02-06T15:40:45.358Z,7.15
2023-02-06T15:43:14.437Z,6.93
2023-02-06T15:45:41.874Z,6.43
2023-02-06T15:48:12.028Z,5.50
2023-02-06T15:53:20.076Z,5.93
2023-02-06T15:55:51.952Z,5.45
2023-02-06T15:58:19.361Z,6.47
2023-02-06T16:00:50.839Z,4.75
2023-02-06T16:03:19.245Z,5.80
2023-02-06T16:05:47.934Z,4.60
2023-02-06T16:08:18.439Z,5.90
2023-02-06T16:10:49.732Z,6.07
2023-02-06T16:13:19.450Z,6.22
2023-02-06T16:16:02.332Z,6.80
2023-02-06T16:18:31.078Z,5.68
2023-02-06T16:21:14.644Z,7.38
2023-02-06T16:23:45.957Z,5.90
2023-02-06T16:26:16.216Z,5.35
2023-02-06T16:28:48.937Z,7.68
2023-02-06T16:31:16.407Z,6.90
2023-02-06T16:33:44.990Z,4.88
2023-02-06T16:36:14.444Z,7.65
2023-02-06T16:38:44.512Z,5.25
2023-02-06T16:41:27.384Z,6.40
2023-02-06T16:43:55.213Z,6.90
2023-02-06T16:46:22.655Z,6.60
2023-02-06T16:48:50.043Z,7.30
2023-02-06T16:51:18.946Z,6.28
2023-02-06T16:53:47.892Z,7.68
2023-02-06T16:56:15.482Z,6.60
2023-02-06T16:58:42.887Z,6.15
2023-02-06T17:01:14.480Z,6.55
2023-02-06T17:03:41.887Z,7.20
2023-02-06T17:06:11.273Z,6.70
2023-02-06T17:08:40.113Z,5.68
2023-02-06T17:11:07.522Z,10.70
2023-02-06T17:13:34.959Z,6.57
2023-02-06T17:16:02.356Z,5.45
2023-02-06T17:18:29.829Z,6.40
2023-02-06T17:20:57.353Z,6.88
2023-02-06T17:23:24.791Z,7.50
2023-02-06T17:25:53.579Z,7.43
2023-02-06T17:28:21.126Z,7.72
2023-02-06T17:30:52.024Z,4.95
2023-02-06T17:33:19.639Z,7.32
2023-02-06T17:35:47.131Z,4.90
2023-02-06T17:38:14.535Z,5.68
2023-02-06T17:40:42.118Z,6.85
2023-02-06T17:43:10.968Z,7.18
2023-02-06T17:45:38.763Z,6.13
2023-02-06T17:48:06.741Z,5.40
2023-02-06T17:50:36.766Z,5.57
2023-02-06T17:55:33.144Z,4.82
2023-02-06T17:58:00.517Z,5.25
2023-02-06T18:00:29.207Z,5.70
2023-02-06T18:02:56.833Z,5.45
2023-02-06T18:05:24.467Z,6.55
2023-02-06T18:07:52.022Z,5.07
2023-02-06T18:10:20.037Z,4.53
2023-02-06T18:12:47.566Z,6.57
2023-02-06T18:15:15.268Z,5.72
2023-02-06T18:17:43.957Z,5.30
2023-02-06T18:20:12.530Z,6.68
2023-02-06T18:22:41.173Z,7.25
2023-02-06T18:25:09.454Z,6.80
2023-02-06T18:27:36.814Z,5.88
2023-02-06T18:30:04.810Z,6.43
2023-02-06T18:32:32.387Z,6.05
2023-02-06T18:35:01.171Z,5.53
2023-02-06T18:37:28.562Z,6.38
2023-02-06T18:39:56.061Z,6.13
2023-02-06T18:42:41.150Z,6.63
2023-02-06T18:45:09.340Z,6.57
2023-02-06T18:47:36.722Z,6.60
2023-02-06T18:50:06.056Z,6.18
2023-02-06T18:52:33.460Z,6.95
2023-02-06T18:55:00.855Z,6.47
2023-02-06T18:57:28.286Z,6.10
2023-02-06T18:59:55.668Z,6.32
2023-02-06T19:02:23.093Z,6.10
2023-02-06T19:04:50.540Z,7.15
2023-02-06T19:07:19.228Z,6.07
2023-02-06T19:09:46.617Z,6.78
2023-02-06T19:12:14.010Z,8.73
2023-02-06T19:14:41.391Z,9.27
2023-02-06T19:17:08.775Z,8.18
2023-02-06T19:19:36.164Z,7.60
2023-02-06T19:22:03.565Z,7.00
2023-02-06T19:24:32.270Z,7.43
2023-02-06T19:27:00.984Z,7.65
2023-02-06T19:29:35.585Z,9.15
2023-02-06T19:32:03.986Z,6.95
2023-02-06T19:34:33.476Z,7.60
2023-02-06T19:37:02.028Z,8.93
2023-02-06T19:39:30.027Z,6.57
2023-02-06T19:41:58.720Z,8.13
2023-02-06T19:44:28.299Z,9.80
2023-02-06T19:46:55.694Z,9.10
2023-02-06T19:49:23.098Z,6.85
2023-02-06T19:51:50.471Z,7.40
2023-02-06T19:54:17.847Z,5.65
2023-02-06T19:56:46.628Z,6.40
2023-02-06T19:59:18.868Z,6.70
2023-02-06T20:01:46.609Z,7.18
2023-02-06T20:04:13.984Z,6.20
2023-02-06T20:06:43.754Z,7.75
2023-02-06T20:09:11.465Z,5.35
2023-02-06T20:11:38.842Z,5.70
2023-02-06T20:14:06.248Z,5.32
2023-02-06T20:16:35.783Z,7.35
2023-02-06T20:19:06.841Z,5.65
2023-02-06T20:21:37.965Z,5.30
2023-02-06T20:24:07.850Z,4.85
2023-02-06T20:26:36.937Z,6.43
2023-02-06T20:29:04.503Z,5.82
2023-02-06T20:31:31.930Z,5.05
2023-02-06T20:34:00.699Z,5.55
2023-02-06T20:36:28.799Z,5.40
2023-02-06T20:38:57.695Z,6.53
2023-02-06T20:41:26.455Z,6.28
2023-02-06T20:43:53.883Z,5.50
2023-02-06T20:46:21.589Z,7.03
2023-02-06T20:48:53.915Z,4.70
2023-02-06T20:51:22.624Z,5.28
2023-02-06T20:53:50.093Z,6.63
2023-02-06T20:56:17.632Z,4.95
2023-02-06T20:58:45.319Z,5.40
2023-02-06T21:01:14.269Z,6.00
2023-02-06T21:03:41.672Z,5.95
2023-02-06T21:06:09.053Z,5.68
2023-02-06T21:08:37.758Z,5.10
2023-02-06T21:11:06.087Z,4.43
2023-02-06T21:13:33.549Z,5.30
2023-02-06T21:16:01.113Z,4.13
2023-02-06T21:18:31.107Z,4.15
2023-02-06T21:20:58.578Z,4.93
2023-02-06T21:23:25.952Z,3.67
2023-02-06T21:25:55.517Z,4.22
2023-02-06T21:28:22.995Z,4.38
2023-02-06T21:30:50.594Z,4.75
2023-02-06T21:33:18.204Z,3.83
2023-02-06T21:35:50.238Z,4.18
2023-02-06T21:38:17.626Z,3.45
2023-02-06T21:40:45.175Z,4.88
2023-02-06T21:43:15.018Z,4.85
2023-02-06T21:45:42.436Z,5.25
2023-02-06T21:48:10.004Z,3.03
2023-02-06T21:50:38.150Z,3.90
2023-02-06T21:53:05.678Z,4.35
2023-02-06T21:55:33.235Z,3.83
2023-02-06T21:58:00.882Z,3.85
2023-02-06T22:00:29.640Z,4.85
2023-02-06T22:02:57.067Z,3.78
2023-02-06T22:05:24.480Z,4.15
2023-02-06T22:07:51.882Z,5.78
2023-02-06T22:10:19.435Z,3.70
2023-02-06T22:12:48.978Z,4.05
2023-02-06T22:15:16.504Z,5.10
2023-02-06T22:17:45.188Z,5.00
2023-02-06T22:20:14.294Z,5.47
2023-02-06T22:22:43.443Z,5.95
2023-02-06T22:25:11.659Z,4.35
2023-02-06T22:27:39.065Z,4.15
2023-02-06T22:30:07.211Z,4.72
2023-02-06T22:32:36.923Z,4.68
2023-02-06T22:35:06.217Z,4.60
2023-02-06T22:37:33.740Z,5.70
2023-02-06T22:40:01.112Z,4.20
2023-02-06T22:42:28.510Z,4.55
2023-02-06T22:44:56.094Z,4.78
2023-02-06T22:47:23.477Z,5.00
2023-02-06T22:49:51.508Z,3.90
2023-02-06T22:52:34.224Z,3.78
2023-02-06T22:55:03.085Z,5.25
2023-02-06T22:57:30.482Z,4.78
2023-02-06T22:59:57.855Z,3.80
2023-02-06T23:02:25.334Z,4.72
2023-02-06T23:04:52.700Z,3.58
2023-02-06T23:07:21.389Z,4.82
2023-02-06T23:09:48.776Z,3.85
2023-02-06T23:12:16.401Z,4.20
2023-02-06T23:14:43.930Z,3.80
2023-02-06T23:17:11.348Z,3.20
2023-02-06T23:19:39.300Z,4.05
2023-02-06T23:22:06.787Z,3.10
2023-02-06T23:24:35.484Z,3.45
2023-02-06T23:27:02.867Z,2.88
2023-02-06T23:29:30.285Z,3.13
2023-02-06T23:31:57.699Z,2.95
2023-02-06T23:34:25.227Z,3.20
2023-02-06T23:36:53.457Z,2.70
2023-02-06T23:39:20.859Z,3.08
2023-02-06T23:41:49.565Z,2.60
2023-02-06T23:44:16.940Z,2.90
2023-02-06T23:46:44.320Z,3.80
2023-02-06T23:49:11.761Z,3.13
2023-02-06T23:51:39.235Z,3.30
2023-02-06T23:54:07.486Z,4.50
2023-02-06T23:56:35.102Z,3.00
2023-02-06T23:59:04.398Z,3.40
